Time;durP1;ratioP1;P1;durP2;ratioP2;P2;SDS_P1;SDS_P2;PMS_P1;PMS_P2;Temp;Humidity;BMP_temperature;BMP_pressure;BME280_temperature;BME280_humidity;BME280_pressure;Samples;Min_cycle;Max_cycle;Signal;HPM_P1;HPM_P2
2021/04/10 00:00:23;;;;;;;16.82;12.23;;;;;;;5.01;52.23;100698.63;1684658;85;21229;-66
2021/04/10 00:02:51;;;;;;;19.02;11.95;;;;;;;5.03;51.86;100701.94;1684193;85;22020;-64
2021/04/10 00:05:22;;;;;;;17.60;12.95;;;;;;;5.07;51.63;100697.87;1703447;84;21354;-63
2021/04/10 00:07:50;;;;;;;20.00;12.55;;;;;;;5.11;51.61;100697.31;1682024;83;21713;-63
2021/04/10 00:10:18;;;;;;;18.57;12.63;;;;;;;5.14;51.59;100694.75;1655582;86;21407;-66
2021/04/10 00:12:45;;;;;;;21.57;13.38;;;;;;;5.14;51.66;100696.09;1681587;85;21658;-65
2021/04/10 00:15:16;;;;;;;18.98;13.55;;;;;;;5.12;51.80;100695.47;1703795;84;22100;-64
2021/04/10 00:17:43;;;;;;;18.62;13.38;;;;;;;5.11;51.84;100693.81;1684662;85;21209;-66
2021/04/10 00:20:17;;;;;;;18.12;12.53;;;;;;;5.10;51.88;100696.16;1703489;84;21198;-64
2021/04/10 00:22:46;;;;;;;21.48;14.65;;;;;;;5.08;51.91;100692.36;1684719;85;21281;-66
2021/04/10 00:25:14;;;;;;;18.07;12.90;;;;;;;5.08;51.94;100688.88;1703900;84;21203;-67
2021/04/10 00:27:45;;;;;;;24.70;16.05;;;;;;;5.08;51.86;100688.37;1685112;84;21655;-68
2021/04/10 00:30:14;;;;;;;20.25;14.50;;;;;;;5.09;51.80;100689.16;1675317;85;21932;-67
2021/04/10 00:32:42;;;;;;;18.05;14.53;;;;;;;5.10;51.70;100684.16;1670920;85;21174;-68
2021/04/10 00:35:12;;;;;;;20.23;14.68;;;;;;;5.10;51.63;100678.83;1685091;85;21220;-68
2021/04/10 00:37:40;;;;;;;22.48;16.12;;;;;;;5.10;51.73;100683.65;1685102;85;21583;-67
2021/04/10 00:40:09;;;;;;;23.67;15.85;;;;;;;5.11;51.70;100691.14;1685129;85;21173;-66
2021/04/10 00:42:37;;;;;;;24.75;16.65;;;;;;;5.10;51.83;100681.48;1685019;85;21241;-66
2021/04/10 00:45:08;;;;;;;26.97;17.10;;;;;;;5.08;51.97;100683.53;1690794;83;21615;-68
2021/04/10 00:47:35;;;;;;;22.32;14.50;;;;;;;5.07;52.06;100684.04;1704034;83;21277;-68
2021/04/10 00:50:05;;;;;;;31.17;17.45;;;;;;;5.04;52.00;100676.40;1689753;83;21195;-69
2021/04/10 00:52:34;;;;;;;25.75;16.50;;;;;;;5.05;52.08;100674.06;1663931;85;21260;-67
2021/04/10 00:55:05;;;;;;;26.52;16.87;;;;;;;5.03;52.15;100677.95;1656960;86;21169;-67
2021/04/10 00:57:34;;;;;;;22.22;14.38;;;;;;;5.01;52.20;100682.13;1657195;86;21182;-66
2021/04/10 01:00:04;;;;;;;29.45;20.92;;;;;;;5.01;52.28;100679.97;1657179;86;22142;-67
2021/04/10 01:02:32;;;;;;;29.15;17.52;;;;;;;4.92;52.84;100683.77;1631716;86;21241;-68
2021/04/10 01:05:01;;;;;;;22.65;14.70;;;;;;;4.84;53.20;100684.72;1648645;86;21018;-67
2021/04/10 01:07:29;;;;;;;22.37;14.35;;;;;;;4.80;53.19;100688.25;1657079;86;21645;-67
2021/04/10 01:09:57;;;;;;;32.20;18.00;;;;;;;4.74;53.63;100686.36;1656530;86;21621;-67
2021/04/10 01:12:52;;;;;;;22.70;14.95;;;;;;;4.59;53.96;100688.72;1612758;86;21241;-65
2021/04/10 01:15:52;;;;;;;28.67;18.77;;;;;;;4.47;54.32;100691.02;1616208;88;21574;-67
2021/04/10 01:19:01;;;;;;;26.20;16.52;;;;;;;4.29;54.91;100691.91;1630365;88;21216;-67
2021/04/10 01:21:44;;;;;;;25.32;16.15;;;;;;;4.21;55.07;100690.69;1629899;86;21705;-66
2021/04/10 01:24:42;;;;;;;;;;;;;;;4.13;55.55;100696.08;1652925;86;21648;-65
2021/04/10 01:27:28;;;;;;;24.55;14.43;;;;;;;4.00;55.94;100690.08;1657060;85;21402;-67
2021/04/10 01:30:03;;;;;;;22.93;15.13;;;;;;;3.90;56.07;100693.50;1655900;86;21163;-68
2021/04/10 01:32:36;;;;;;;19.50;13.18;;;;;;;3.83;56.28;100696.59;1656521;85;21138;-70
2021/04/10 01:35:12;;;;;;;26.85;15.50;;;;;;;3.80;56.42;100696.43;1671169;85;21216;-67
2021/04/10 01:37:54;;;;;;;18.05;12.50;;;;;;;3.74;56.94;100699.00;1704135;84;21175;-67
2021/04/10 01:40:22;;;;;;;25.15;14.60;;;;;;;3.61;57.54;100694.28;1684674;85;22736;-66
2021/04/10 01:42:51;;;;;;;19.00;13.98;;;;;;;3.51;58.08;100699.85;1682588;84;21152;-66
2021/04/10 01:45:20;;;;;;;25.85;15.23;;;;;;;3.44;58.13;100692.28;1684752;85;21614;-66
2021/04/10 01:47:48;;;;;;;18.50;14.38;;;;;;;3.41;58.20;100692.62;1684433;83;21621;-66
2021/04/10 01:50:17;;;;;;;26.40;15.88;;;;;;;3.38;58.49;100692.98;1633749;86;21171;-67
2021/04/10 01:52:46;;;;;;;18.62;13.85;;;;;;;3.38;58.56;100696.98;1659999;85;21383;-67
2021/04/10 01:55:14;;;;;;;22.73;13.93;;;;;;;3.37;58.82;100694.48;1684866;85;21641;-67
2021/04/10 01:57:44;;;;;;;26.62;17.45;;;;;;;3.33;59.14;100698.02;1703182;84;21207;-68
2021/04/10 02:00:16;;;;;;;30.60;17.23;;;;;;;3.29;59.53;100696.72;1660968;85;21062;-67
2021/04/10 02:02:46;;;;;;;21.55;14.23;;;;;;;3.30;59.32;100708.19;1706297;84;21597;-66
2021/04/10 02:05:16;;;;;;;18.35;13.13;;;;;;;3.34;59.03;100707.66;1684571;85;21225;-67
2021/04/10 02:07:47;;;;;;;20.48;14.93;;;;;;;3.41;58.55;100707.75;1704120;82;21564;-67
2021/04/10 02:10:17;;;;;;;18.12;12.55;;;;;;;3.47;58.22;100703.05;1663873;85;21199;-66
2021/04/10 02:12:50;;;;;;;23.98;14.38;;;;;;;3.53;57.90;100708.99;1680465;85;21162;-66
2021/04/10 02:15:29;;;;;;;22.90;14.70;;;;;;;3.63;57.59;100705.58;1846984;76;22676;-67
2021/04/10 02:17:58;;;;;;;20.12;14.15;;;;;;;3.62;57.39;100707.08;1816570;79;21744;-68
2021/04/10 02:20:27;;;;;;;21.37;13.13;;;;;;;3.66;57.18;100713.19;1817267;78;21187;-68
2021/04/10 02:22:56;;;;;;;21.65;13.85;;;;;;;3.67;57.07;100708.20;1787981;78;20947;-69
2021/04/10 02:25:32;;;;;;;20.85;13.40;;;;;;;3.68;57.10;100704.54;1784667;80;21050;-67
2021/04/10 02:28:00;;;;;;;20.65;13.78;;;;;;;3.72;57.09;100703.67;1785641;79;21594;-66
2021/04/10 02:30:29;;;;;;;20.32;12.40;;;;;;;3.73;56.99;100707.48;1787241;79;21550;-66
2021/04/10 02:33:01;;;;;;;18.85;13.20;;;;;;;3.72;56.92;100704.50;1813044;79;21566;-67
2021/04/10 02:35:50;;;;;;;23.12;13.68;;;;;;;3.73;56.89;100706.16;1784714;79;21042;-66
2021/04/10 02:38:19;;;;;;;20.65;13.58;;;;;;;3.72;56.84;100705.83;1754929;79;20991;-66
2021/04/10 02:40:52;;;;;;;19.55;13.45;;;;;;;3.72;56.77;100703.17;1761678;79;21505;-66
2021/04/10 02:43:28;;;;;;;27.27;17.27;;;;;;;3.72;56.74;100705.00;1817178;78;21606;-65
2021/04/10 02:46:01;;;;;;;18.45;13.65;;;;;;;3.71;56.69;100706.00;1816908;79;21293;-67
2021/04/10 02:49:00;;;;;;;18.35;13.43;;;;;;;3.71;56.44;100708.16;1817269;79;21554;-66
2021/04/10 02:51:44;;;;;;;25.12;12.88;;;;;;;3.72;56.33;100710.31;1768195;80;21156;-67
2021/04/10 02:54:16;;;;;;;19.25;11.60;;;;;;;3.72;56.37;100711.65;1802905;79;20975;-67
2021/04/10 02:57:01;;;;;;;21.35;13.60;;;;;;;3.73;56.43;100708.81;1760648;79;21159;-66
2021/04/10 02:59:29;;;;;;;20.88;13.65;;;;;;;3.74;56.35;100709.65;1784503;80;23568;-67
2021/04/10 03:01:58;;;;;;;19.45;13.08;;;;;;;3.74;56.23;100705.13;1805539;79;21622;-67
2021/04/10 03:04:26;;;;;;;16.87;11.20;;;;;;;3.73;56.17;100714.14;1817130;78;21137;-66
2021/04/10 03:06:55;;;;;;;19.57;12.65;;;;;;;3.75;56.02;100712.61;1800685;79;21741;-67
2021/04/10 03:09:25;;;;;;;16.60;13.28;;;;;;;3.74;55.92;100713.11;1756811;80;21200;-67
2021/04/10 03:11:53;;;;;;;16.77;9.68;;;;;;;3.75;55.91;100717.93;1770313;80;22354;-68
2021/04/10 03:14:22;;;;;;;20.50;12.58;;;;;;;3.75;55.96;100721.92;1764442;80;21149;-67
2021/04/10 03:16:51;;;;;;;22.40;15.10;;;;;;;3.74;56.14;100718.96;1770512;80;21582;-66
2021/04/10 03:19:20;;;;;;;21.90;13.85;;;;;;;3.69;56.49;100729.31;1784913;80;21158;-66
2021/04/10 03:21:50;;;;;;;22.90;13.30;;;;;;;3.62;56.77;100722.54;1770667;80;21156;-66
2021/04/10 03:24:18;;;;;;;18.65;12.20;;;;;;;3.54;57.07;100726.61;1753878;81;21383;-66
2021/04/10 03:26:47;;;;;;;18.70;12.58;;;;;;;3.46;57.35;100727.98;1755824;80;21169;-66
2021/04/10 03:29:16;;;;;;;21.42;14.20;;;;;;;3.40;57.67;100725.56;1752575;80;21041;-65
2021/04/10 03:31:46;;;;;;;19.85;13.10;;;;;;;3.36;57.78;100732.71;1754024;80;21022;-65
2021/04/10 03:34:14;;;;;;;21.42;16.25;;;;;;;3.33;58.02;100735.23;1753275;81;21141;-68
2021/04/10 03:36:42;;;;;;;23.50;15.83;;;;;;;3.26;58.35;100738.79;1726701;80;22027;-67
2021/04/10 03:39:10;;;;;;;22.20;13.78;;;;;;;3.22;58.33;100739.63;1753293;81;21013;-66
2021/04/10 03:41:42;;;;;;;27.65;14.18;;;;;;;3.23;58.42;100730.66;1725296;81;21551;-67
2021/04/10 03:44:11;;;;;;;19.95;13.93;;;;;;;3.25;58.29;100738.46;1754053;80;21172;-67
2021/04/10 03:46:39;;;;;;;23.95;13.45;;;;;;;3.26;58.45;100738.79;1782001;80;21118;-68
2021/04/10 03:49:08;;;;;;;26.30;14.43;;;;;;;3.23;58.69;100743.11;1725711;81;22809;-65
2021/04/10 03:51:36;;;;;;;21.75;15.05;;;;;;;3.15;58.93;100739.19;1770419;80;21205;-66
2021/04/10 03:54:05;;;;;;;19.67;13.62;;;;;;;3.10;59.17;100741.55;1784260;80;21188;-65
2021/04/10 03:56:35;;;;;;;22.60;12.80;;;;;;;3.08;59.21;100735.89;1784077;80;20998;-67
2021/04/10 03:59:05;;;;;;;21.63;15.87;;;;;;;3.13;59.30;100741.18;1727242;80;21197;-66
2021/04/10 04:01:34;;;;;;;21.75;16.23;;;;;;;3.13;59.21;100742.52;1752237;81;22364;-68
2021/04/10 04:04:03;;;;;;;24.10;14.98;;;;;;;3.17;59.11;100741.15;1753742;80;21181;-67
2021/04/10 04:06:31;;;;;;;24.47;15.53;;;;;;;3.21;59.09;100738.49;1753239;81;21168;-65
2021/04/10 04:08:59;;;;;;;22.80;16.15;;;;;;;3.26;58.89;100742.25;1780498;80;21251;-65
2021/04/10 04:11:27;;;;;;;21.90;15.48;;;;;;;3.30;58.77;100738.76;1784304;80;21114;-67
2021/04/10 04:13:55;;;;;;;18.77;14.55;;;;;;;3.36;58.65;100739.36;1765318;80;21245;-66
2021/04/10 04:16:22;;;;;;;25.17;14.15;;;;;;;3.41;58.44;100743.64;1778347;80;21109;-67
2021/04/10 04:18:50;;;;;;;20.10;12.13;;;;;;;3.48;58.23;100745.93;1783429;80;21169;-66
2021/04/10 04:21:18;;;;;;;20.62;12.18;;;;;;;3.54;57.91;100739.91;1784274;80;21085;-67
2021/04/10 04:23:46;;;;;;;14.35;10.03;;;;;;;3.61;57.77;100745.32;1784411;80;21154;-67
2021/04/10 04:26:14;;;;;;;19.00;12.20;;;;;;;3.66;57.58;100745.11;1751401;80;21373;-66
2021/04/10 04:28:42;;;;;;;20.02;13.50;;;;;;;3.70;57.49;100746.41;1755087;80;21118;-66
2021/04/10 04:31:09;;;;;;;20.08;12.58;;;;;;;3.75;57.14;100744.53;1763768;80;21562;-66
2021/04/10 04:33:37;;;;;;;19.73;14.25;;;;;;;3.75;57.08;100740.55;1783909;80;21014;-66
2021/04/10 04:36:06;;;;;;;19.98;14.07;;;;;;;3.75;57.11;100745.37;1784418;80;21594;-67
2021/04/10 04:38:34;;;;;;;25.30;16.50;;;;;;;3.79;57.15;100744.52;1761319;80;22248;-66
2021/04/10 04:41:02;;;;;;;19.82;12.82;;;;;;;3.83;57.05;100748.47;1753207;81;21160;-68
2021/04/10 04:43:29;;;;;;;20.77;15.48;;;;;;;3.89;56.83;100751.72;1753256;81;21660;-68
2021/04/10 04:45:57;;;;;;;18.82;11.45;;;;;;;3.94;56.71;100753.34;1755398;80;21566;-67
2021/04/10 04:48:25;;;;;;;19.20;12.68;;;;;;;4.01;56.60;100750.80;1776629;80;21117;-68
2021/04/10 04:50:52;;;;;;;19.73;13.72;;;;;;;4.06;56.50;100748.42;1777273;80;21383;-67
2021/04/10 04:53:22;;;;;;;20.72;13.60;;;;;;;4.10;56.42;100746.54;1781199;79;21054;-68
2021/04/10 04:55:50;;;;;;;23.45;14.60;;;;;;;4.16;56.29;100750.31;1784456;79;21559;-66
2021/04/10 04:58:18;;;;;;;20.72;13.83;;;;;;;4.20;56.07;100750.27;1758936;80;21014;-67
2021/04/10 05:00:46;;;;;;;19.17;13.40;;;;;;;4.23;56.18;100754.72;1753457;80;21571;-66
2021/04/10 05:03:13;;;;;;;21.00;14.45;;;;;;;4.24;56.04;100746.23;1777309;80;21267;-64
2021/04/10 05:05:41;;;;;;;22.62;14.78;;;;;;;4.27;56.03;100747.18;1784103;80;21612;-65
2021/04/10 05:08:09;;;;;;;20.40;15.20;;;;;;;4.29;55.92;100751.83;1761445;80;21110;-69
2021/04/10 05:10:37;;;;;;;20.25;14.85;;;;;;;4.28;55.91;100752.83;1753205;81;21046;-69
2021/04/10 05:13:06;;;;;;;26.33;15.93;;;;;;;4.29;56.08;100747.84;1762641;80;21138;-68
2021/04/10 05:15:33;;;;;;;19.70;12.78;;;;;;;4.31;56.21;100747.99;1790875;79;21654;-68
2021/04/10 05:18:01;;;;;;;22.98;15.18;;;;;;;4.34;56.32;100743.62;1795343;79;21562;-66
2021/04/10 05:20:29;;;;;;;26.27;17.23;;;;;;;4.41;56.45;100745.05;1796319;79;21574;-66
2021/04/10 05:22:57;;;;;;;27.25;18.00;;;;;;;4.47;56.49;100745.63;1796251;79;21490;-68
2021/04/10 05:25:25;;;;;;;21.12;16.32;;;;;;;4.50;56.74;100743.12;1795039;79;21136;-70
2021/04/10 05:27:55;;;;;;;21.77;14.75;;;;;;;4.53;56.85;100754.22;1794981;79;21255;-67
2021/04/10 05:30:25;;;;;;;22.17;15.95;;;;;;;4.58;56.80;100745.17;1773742;79;21239;-66
2021/04/10 05:32:54;;;;;;;24.12;16.95;;;;;;;4.66;56.86;100744.23;1771190;79;21144;-67
2021/04/10 05:35:22;;;;;;;25.95;17.35;;;;;;;4.73;56.89;100745.98;1782609;79;21707;-70
2021/04/10 05:37:49;;;;;;;20.08;13.62;;;;;;;4.82;56.75;100741.38;1796146;79;21594;-68
2021/04/10 05:40:17;;;;;;;21.42;15.50;;;;;;;4.91;56.53;100744.75;1796022;79;22373;-66
2021/04/10 05:42:45;;;;;;;21.07;13.88;;;;;;;4.97;56.11;100744.01;1791305;79;21127;-67
2021/04/10 05:45:14;;;;;;;22.02;15.32;;;;;;;5.06;56.36;100742.37;1791840;80;21164;-67
2021/04/10 05:47:41;;;;;;;22.73;13.05;;;;;;;5.12;56.26;100741.63;1774561;79;21586;-68
2021/04/10 05:50:11;;;;;;;16.97;11.55;;;;;;;5.22;56.02;100743.98;1764856;81;21152;-67
2021/04/10 05:52:39;;;;;;;17.95;10.78;;;;;;;5.30;55.84;100742.52;1777374;79;22379;-68
2021/04/10 05:55:08;;;;;;;19.02;13.15;;;;;;;5.39;55.71;100742.72;1780016;79;21164;-69
2021/04/10 05:57:35;;;;;;;18.12;9.95;;;;;;;5.52;55.39;100740.67;1769310;79;21144;-70
2021/04/10 06:00:05;;;;;;;15.28;11.95;;;;;;;5.63;55.07;100743.66;1726911;83;21140;-67
2021/04/10 06:02:35;;;;;;;16.25;11.22;;;;;;;5.76;54.62;100743.45;1752763;81;21131;-72
2021/04/10 06:05:06;;;;;;;17.90;12.15;;;;;;;5.84;53.62;100740.16;1758245;81;21214;-68
2021/04/10 06:07:34;;;;;;;13.48;10.90;;;;;;;5.95;53.36;100743.64;1728717;83;21548;-68
2021/04/10 06:10:04;;;;;;;19.07;12.88;;;;;;;6.07;53.41;100748.78;1730698;81;21174;-68
2021/04/10 06:12:32;;;;;;;20.10;13.43;;;;;;;6.18;53.32;100746.59;1741194;81;21192;-67
2021/04/10 06:15:00;;;;;;;19.25;12.03;;;;;;;6.27;53.40;100744.08;1725291;81;21140;-68
2021/04/10 06:17:28;;;;;;;15.98;12.98;;;;;;;6.34;53.17;100742.27;1733849;82;21388;-68
2021/04/10 06:19:56;;;;;;;17.37;12.25;;;;;;;6.44;53.11;100740.06;1731750;82;21050;-68
2021/04/10 06:22:26;;;;;;;11.65;9.48;;;;;;;6.64;51.94;100739.66;1692269;81;21188;-68
2021/04/10 06:24:57;;;;;;;16.42;11.83;;;;;;;6.78;51.52;100744.55;1771227;80;21004;-68
2021/04/10 06:27:24;;;;;;;19.98;10.78;;;;;;;6.78;51.52;100744.55;1753187;81;21610;-72
2021/04/10 06:29:52;;;;;;;12.10;9.83;;;;;;;6.89;49.82;100748.83;1780876;80;21621;-70
2021/04/10 06:32:20;;;;;;;14.73;10.63;;;;;;;7.03;49.07;100750.20;1784177;80;21145;-70
2021/04/10 06:34:49;;;;;;;17.87;11.65;;;;;;;7.11;48.31;100751.35;1783467;80;21559;-69
2021/04/10 06:37:16;;;;;;;15.45;11.25;;;;;;;7.20;48.46;100747.47;1755278;80;21141;-69
2021/04/10 06:39:44;;;;;;;16.87;11.48;;;;;;;7.31;48.19;100746.38;1753156;81;21237;-69
2021/04/10 06:42:13;;;;;;;15.83;11.38;;;;;;;7.43;47.56;100747.95;1773096;80;21382;-69
2021/04/10 06:44:42;;;;;;;13.00;9.38;;;;;;;7.53;46.58;100744.88;1779256;79;21559;-68
2021/04/10 06:47:09;;;;;;;18.30;8.63;;;;;;;7.64;45.82;100744.26;1770857;80;21570;-70
2021/04/10 06:49:38;;;;;;;10.13;7.95;;;;;;;7.72;45.22;100742.19;1762548;80;24919;-68
2021/04/10 06:52:07;;;;;;;13.30;9.13;;;;;;;7.82;44.80;100745.29;1746963;81;21135;-70
2021/04/10 06:54:38;;;;;;;10.65;8.58;;;;;;;7.92;43.77;100736.02;1732140;82;21447;-70
2021/04/10 06:57:19;;;;;;;10.45;7.15;;;;;;;7.98;43.06;100736.02;1720848;82;21125;-70
2021/04/10 07:00:00;;;;;;;8.98;6.92;;;;;;;8.06;42.59;100741.67;1741389;82;21028;-64
2021/04/10 07:02:27;;;;;;;34.70;9.15;;;;;;;8.11;42.44;100748.57;1737509;82;21609;-64
2021/04/10 07:04:56;;;;;;;8.95;6.72;;;;;;;8.19;42.36;100743.02;1711495;82;21247;-65
2021/04/10 07:07:25;;;;;;;17.90;8.25;;;;;;;8.27;41.94;100750.83;1709213;84;21585;-63
2021/04/10 07:09:53;;;;;;;10.08;7.60;;;;;;;8.33;41.51;100740.66;1708476;84;21235;-65
2021/04/10 07:12:21;;;;;;;9.83;6.85;;;;;;;8.37;41.47;100747.23;1708862;84;21154;-64
2021/04/10 07:14:50;;;;;;;12.23;7.85;;;;;;;8.43;41.68;100744.24;1710149;83;21211;-64
2021/04/10 07:17:20;;;;;;;9.78;8.28;;;;;;;8.48;41.86;100755.16;1716187;83;21191;-62
2021/04/10 07:19:48;;;;;;;11.30;7.62;;;;;;;8.49;41.77;100748.23;1720637;83;21379;-63
2021/04/10 07:22:16;;;;;;;8.30;6.62;;;;;;;8.52;41.77;100752.36;1719473;83;21170;-67
2021/04/10 07:24:49;;;;;;;9.48;7.08;;;;;;;8.59;41.21;100753.16;1720554;83;21687;-63
2021/04/10 07:27:21;;;;;;;13.80;7.72;;;;;;;8.67;40.68;100752.94;1721203;83;21195;-64
2021/04/10 07:29:54;;;;;;;18.73;8.65;;;;;;;8.76;39.35;100755.70;1718147;83;21170;-63
2021/04/10 07:32:36;;;;;;;11.90;7.87;;;;;;;8.80;38.78;100746.18;1718464;83;22113;-64
2021/04/10 07:35:09;;;;;;;13.28;8.03;;;;;;;8.84;38.40;100754.11;1715283;83;21274;-65
2021/04/10 07:37:42;;;;;;;7.90;6.03;;;;;;;8.85;38.34;100754.94;1714114;83;21163;-64
2021/04/10 07:40:27;;;;;;;17.90;8.27;;;;;;;8.87;38.37;100747.00;1682765;85;21190;-64
2021/04/10 07:43:01;;;;;;;12.00;6.47;;;;;;;8.90;38.45;100748.41;1719867;83;22412;-69
2021/04/10 07:45:33;;;;;;;9.75;6.90;;;;;;;8.93;38.71;100743.95;1721049;83;21181;-67
2021/04/10 07:48:14;;;;;;;8.13;5.53;;;;;;;9.01;38.24;100750.44;1708118;83;21659;-65
2021/04/10 07:50:42;;;;;;;14.58;7.33;;;;;;;9.05;38.05;100739.06;1700189;84;21143;-66
2021/04/10 07:53:28;;;;;;;9.10;5.90;;;;;;;9.09;37.82;100740.27;1699792;84;21613;-67
2021/04/10 07:55:58;;;;;;;13.55;7.75;;;;;;;9.11;38.17;100744.09;1716857;83;21204;-68
2021/04/10 07:58:32;;;;;;;13.65;7.70;;;;;;;9.14;38.50;100744.48;1698644;84;21380;-64
2021/04/10 08:01:07;;;;;;;10.28;7.20;;;;;;;9.17;38.58;100735.16;1716714;83;21141;-65
2021/04/10 08:03:39;;;;;;;12.68;8.83;;;;;;;9.24;38.54;100729.77;1699196;83;21712;-63
2021/04/10 08:06:15;;;;;;;15.75;7.72;;;;;;;9.27;37.79;100729.33;1716449;83;21048;-65
2021/04/10 08:08:53;;;;;;;9.40;5.92;;;;;;;9.30;37.32;100732.94;1700230;84;21191;-69
2021/04/10 08:11:42;;;;;;;9.35;7.30;;;;;;;9.35;37.54;100743.31;1698416;84;21221;-65
2021/04/10 08:14:14;;;;;;;16.40;8.25;;;;;;;9.38;37.47;100734.84;1717724;83;21152;-66
2021/04/10 08:16:45;;;;;;;9.28;6.35;;;;;;;9.46;37.64;100727.03;1686562;84;26761;-64
2021/04/10 08:19:14;;;;;;;7.65;6.05;;;;;;;9.54;36.89;100732.16;1701169;83;21153;-65
2021/04/10 08:21:49;;;;;;;10.70;6.90;;;;;;;9.60;36.34;100733.95;1700514;84;21164;-67
2021/04/10 08:24:39;;;;;;;13.58;8.55;;;;;;;9.62;36.32;100729.20;1702013;83;21377;-65
2021/04/10 08:27:13;;;;;;;6.40;5.28;;;;;;;9.68;36.47;100740.42;1702347;84;21190;-67
2021/04/10 08:29:42;;;;;;;9.60;6.22;;;;;;;9.76;35.20;100739.32;1700941;82;21732;-65
2021/04/10 08:32:11;;;;;;;8.43;5.83;;;;;;;9.80;35.22;100727.91;1701017;83;21166;-65
2021/04/10 08:34:39;;;;;;;6.25;5.65;;;;;;;9.82;35.59;100724.50;1700843;83;21187;-64
2021/04/10 08:37:08;;;;;;;8.40;6.03;;;;;;;9.80;35.64;100719.86;1703423;84;21387;-62
2021/04/10 08:39:47;;;;;;;7.92;6.08;;;;;;;9.86;36.46;100714.95;1702845;83;21779;-65
2021/04/10 08:42:17;;;;;;;9.43;7.35;;;;;;;9.98;35.00;100716.38;1672706;85;21210;-69
2021/04/10 08:44:48;;;;;;;8.25;6.03;;;;;;;10.07;34.51;100713.74;1700841;83;21204;-67
2021/04/10 08:47:18;;;;;;;7.28;6.40;;;;;;;10.13;35.09;100722.77;1696299;83;21043;-66
2021/04/10 08:49:48;;;;;;;8.35;5.85;;;;;;;10.17;35.59;100721.33;1673738;85;21256;-64
2021/04/10 08:52:24;;;;;;;9.00;6.33;;;;;;;10.14;35.30;100721.72;1691320;83;21138;-66
2021/04/10 08:54:52;;;;;;;10.43;7.67;;;;;;;10.11;35.75;100718.14;1698490;84;21187;-66
2021/04/10 08:57:22;;;;;;;6.37;5.72;;;;;;;10.13;35.80;100717.38;1701342;83;21228;-65
2021/04/10 08:59:50;;;;;;;8.63;6.12;;;;;;;10.19;35.69;100715.19;1673859;85;21208;-67
2021/04/10 09:02:22;;;;;;;6.45;5.92;;;;;;;10.29;35.69;100717.67;1701895;83;21407;-65
2021/04/10 09:05:06;;;;;;;8.78;5.45;;;;;;;10.38;35.71;100700.20;1702249;84;21159;-68
2021/04/10 09:07:52;;;;;;;10.35;6.12;;;;;;;10.43;34.69;100707.59;1701972;83;21154;-65
2021/04/10 09:10:32;;;;;;;8.65;6.87;;;;;;;10.45;34.81;100710.90;1701257;84;21195;-66
2021/04/10 09:13:14;;;;;;;8.45;7.17;;;;;;;10.49;35.27;100706.70;1701980;83;21154;-64
2021/04/10 09:15:45;;;;;;;12.20;7.70;;;;;;;10.52;34.82;100710.28;1689245;83;21731;-64
2021/04/10 09:18:15;;;;;;;12.70;7.72;;;;;;;10.49;35.06;100697.30;1681441;84;22216;-64
2021/04/10 09:20:48;;;;;;;8.90;6.03;;;;;;;10.54;35.48;100704.17;1694063;84;21094;-65
2021/04/10 09:23:28;;;;;;;8.50;5.33;;;;;;;10.63;34.72;100706.03;1682422;84;21585;-65
2021/04/10 09:26:16;;;;;;;6.92;6.03;;;;;;;10.73;34.60;100700.42;1682550;85;21640;-64
2021/04/10 09:29:08;;;;;;;5.45;4.30;;;;;;;10.84;34.56;100715.78;1680853;84;21453;-65
2021/04/10 09:31:51;;;;;;;9.15;6.28;;;;;;;10.79;34.26;100703.53;1682434;85;21158;-64
2021/04/10 09:34:53;;;;;;;6.78;5.90;;;;;;;10.81;34.90;100701.45;1658055;84;21609;-63
2021/04/10 09:37:27;;;;;;;7.17;5.67;;;;;;;10.92;34.54;100693.14;1693328;84;21576;-66
2021/04/10 09:40:17;;;;;;;9.83;6.97;;;;;;;10.99;34.36;100695.20;1676422;84;21188;-64
2021/04/10 09:45:26;;;;;;;10.80;7.03;;;;;;;11.06;33.05;100694.59;1676453;84;21147;-63
2021/04/10 09:48:07;;;;;;;8.05;6.12;;;;;;;11.07;33.47;100704.32;1674504;84;21170;-66
2021/04/10 09:50:41;;;;;;;8.43;6.72;;;;;;;11.12;33.78;100691.00;1693652;84;21168;-67
2021/04/10 09:53:15;;;;;;;5.22;4.72;;;;;;;11.20;33.76;100693.88;1676742;84;21639;-66
2021/04/10 09:55:49;;;;;;;8.40;6.12;;;;;;;11.25;33.74;100694.84;1703779;84;21588;-66
2021/04/10 09:58:20;;;;;;;8.65;5.78;;;;;;;11.34;33.56;100695.33;1688825;84;21147;-63
2021/04/10 10:00:51;;;;;;;8.18;6.55;;;;;;;11.42;32.78;100692.81;1682426;85;21142;-64
2021/04/10 10:03:21;;;;;;;6.60;5.95;;;;;;;11.45;32.52;100685.64;1681719;85;21158;-63
2021/04/10 10:05:53;;;;;;;9.80;5.58;;;;;;;11.47;32.62;100684.34;1701258;84;21203;-62
2021/04/10 10:08:23;;;;;;;9.15;6.67;;;;;;;11.46;33.19;100685.42;1702905;84;21606;-66
2021/04/10 10:10:55;;;;;;;9.53;6.62;;;;;;;11.43;33.44;100677.78;1694296;84;21162;-65
2021/04/10 10:13:30;;;;;;;28.40;7.60;;;;;;;11.46;33.45;100687.28;1708829;82;21054;-65
2021/04/10 10:15:58;;;;;;;7.28;5.55;;;;;;;11.50;33.48;100676.34;1700862;82;21192;-68
2021/04/10 10:18:30;;;;;;;8.13;5.53;;;;;;;11.60;33.57;100681.46;1711016;82;21170;-65
2021/04/10 10:21:13;;;;;;;9.13;7.37;;;;;;;11.68;32.85;100675.72;1728329;82;21439;-63
2021/04/10 10:23:53;;;;;;;7.70;7.00;;;;;;;11.75;32.70;100668.36;1722885;82;21042;-65
2021/04/10 10:26:32;;;;;;;10.40;6.62;;;;;;;11.84;32.75;100672.90;1729986;82;21020;-62
2021/04/10 10:29:11;;;;;;;14.63;7.58;;;;;;;11.85;33.06;100656.17;1706067;84;21661;-63
2021/04/10 10:31:46;;;;;;;6.53;5.92;;;;;;;11.91;33.63;100656.59;1733898;82;21181;-66
2021/04/10 10:34:22;;;;;;;7.17;6.25;;;;;;;11.99;33.31;100661.64;1735379;82;21209;-68
2021/04/10 10:36:52;;;;;;;7.58;6.58;;;;;;;12.07;33.43;100665.33;1713221;82;21211;-66
2021/04/10 10:39:32;;;;;;;17.80;7.12;;;;;;;12.12;33.39;100661.39;1705960;84;21123;-65
2021/04/10 10:42:01;;;;;;;7.92;6.58;;;;;;;12.19;33.27;100672.86;1735300;82;21029;-65
2021/04/10 10:44:30;;;;;;;9.23;6.40;;;;;;;12.21;32.73;100657.27;1735646;82;21162;-65
2021/04/10 10:47:05;;;;;;;9.60;6.05;;;;;;;12.20;33.17;100659.67;1734853;82;21365;-65
2021/04/10 10:49:33;;;;;;;8.90;6.17;;;;;;;12.29;32.92;100658.77;1733219;82;21239;-66
2021/04/10 10:52:01;;;;;;;8.10;6.45;;;;;;;12.41;32.50;100653.67;1735234;82;21902;-67
2021/04/10 10:54:35;;;;;;;13.80;6.47;;;;;;;12.45;31.55;100664.27;1734873;82;21122;-65
2021/04/10 10:57:11;;;;;;;7.20;5.12;;;;;;;12.51;31.71;100662.50;1735649;82;21157;-66
2021/04/10 10:59:43;;;;;;;8.13;6.92;;;;;;;12.57;31.41;100653.43;1733260;82;20976;-65
2021/04/10 11:02:18;;;;;;;10.00;7.25;;;;;;;12.65;31.97;100643.63;1735181;82;21047;-66
2021/04/10 11:04:47;;;;;;;9.08;7.05;;;;;;;12.78;31.98;100654.66;1735419;82;21024;-64
2021/04/10 11:07:15;;;;;;;10.60;7.25;;;;;;;12.88;32.12;100648.11;1733927;82;21570;-65
2021/04/10 11:09:44;;;;;;;8.93;7.22;;;;;;;12.97;32.23;100635.33;1695370;82;21216;-65
2021/04/10 11:12:15;;;;;;;9.65;7.12;;;;;;;13.09;32.31;100631.23;1706046;84;21371;-63
2021/04/10 11:14:46;;;;;;;8.93;6.85;;;;;;;13.18;32.48;100633.84;1707768;82;21654;-63
2021/04/10 11:17:29;;;;;;;8.93;6.10;;;;;;;13.30;32.28;100641.34;1737579;82;21217;-69
2021/04/10 11:20:02;;;;;;;11.30;7.17;;;;;;;13.30;30.96;100635.94;1727775;82;21664;-66
2021/04/10 11:22:31;;;;;;;11.55;7.42;;;;;;;13.22;30.86;100630.94;1740063;82;21119;-66
2021/04/10 11:25:00;;;;;;;7.85;7.00;;;;;;;13.21;30.58;100621.20;1723321;82;21655;-67
2021/04/10 11:27:34;;;;;;;8.35;7.00;;;;;;;13.26;30.45;100625.34;1747206;82;21301;-65
2021/04/10 11:30:09;;;;;;;10.58;7.08;;;;;;;13.36;30.08;100624.69;1747604;82;21214;-67
2021/04/10 11:32:44;;;;;;;6.92;6.05;;;;;;;13.40;30.70;100617.19;1747877;82;21176;-66
2021/04/10 11:35:17;;;;;;;10.48;6.37;;;;;;;13.50;30.58;100617.89;1722898;82;21636;-66
2021/04/10 11:37:51;;;;;;;;;;;;;;;13.37;30.59;100610.12;1719443;83;21547;-72
2021/04/10 11:40:26;;;;;;;8.90;6.47;;;;;;;13.29;30.98;100601.87;1716889;83;20148;-69
2021/04/10 11:43:05;;;;;;;8.95;6.95;;;;;;;13.31;30.87;100594.88;1716971;83;21659;-68
2021/04/10 11:45:39;;;;;;;6.58;5.97;;;;;;;13.32;30.89;100605.98;1716800;83;21139;-69